Time;durP1;ratioP1;P1;durP2;ratioP2;P2;SDS_P1;SDS_P2;PMS_P1;PMS_P2;Temp;Humidity;BMP_temperature;BMP_pressure;BME280_temperature;BME280_humidity;BME280_pressure;Samples;Min_cycle;Max_cycle;Signal;HPM_P1;HPM_P2
2022/07/10 00:01:19;;;;;;;2.47;2.27;;;15.30;77.70;;;;;;4213162;28;20179;-74
2022/07/10 00:03:20;;;;;;;2.93;2.40;;;15.20;78.70;;;;;;4214182;28;20203;-74
2022/07/10 00:05:21;;;;;;;2.93;2.63;;;15.20;78.80;;;;;;4214183;28;20740;-74
2022/07/10 00:07:22;;;;;;;2.93;2.57;;;15.20;78.90;;;;;;4214335;28;20178;-74
2022/07/10 00:09:22;;;;;;;3.33;2.30;;;15.10;79.70;;;;;;4214155;28;20299;-74
2022/07/10 00:11:23;;;;;;;3.53;2.70;;;15.10;79.60;;;;;;4213051;28;20202;-74
2022/07/10 00:13:23;;;;;;;2.77;2.47;;;15.00;80.70;;;;;;4214342;28;20198;-76
2022/07/10 00:15:24;;;;;;;6.07;2.53;;;15.10;80.50;;;;;;4213851;28;20243;-75
2022/07/10 00:17:24;;;;;;;3.00;2.70;;;15.10;80.60;;;;;;4213033;28;20175;-75
2022/07/10 00:19:25;;;;;;;2.90;2.30;;;15.00;81.10;;;;;;4214430;28;20179;-75
2022/07/10 00:21:25;;;;;;;2.30;2.10;;;15.10;81.40;;;;;;4213263;28;20195;-75
2022/07/10 00:23:26;;;;;;;3.40;2.60;;;15.00;81.70;;;;;;4213268;28;20198;-75
2022/07/10 00:25:27;;;;;;;3.17;2.60;;;14.90;83.60;;;;;;4214013;28;20287;-75
2022/07/10 00:27:27;;;;;;;3.87;2.67;;;14.80;85.30;;;;;;4213757;28;20564;-75
2022/07/10 00:29:28;;;;;;;5.03;2.60;;;14.70;86.80;;;;;;4213620;28;20752;-75
2022/07/10 00:31:28;;;;;;;3.87;2.40;;;14.60;87.60;;;;;;4213223;28;20171;-75
2022/07/10 00:33:31;;;;;;;2.60;2.40;;;14.60;88.60;;;;;;4214664;28;20198;-75
2022/07/10 00:35:32;;;;;;;3.00;2.67;;;14.50;89.80;;;;;;4202213;28;20634;-75
2022/07/10 00:37:33;;;;;;;3.30;2.60;;;14.50;90.30;;;;;;4196835;28;20229;-75
2022/07/10 00:39:34;;;;;;;2.73;2.53;;;14.40;90.50;;;;;;4197108;28;20666;-75
2022/07/10 00:41:35;;;;;;;3.20;2.53;;;14.30;91.10;;;;;;4197389;28;20230;-75
2022/07/10 00:43:59;;;;;;;3.67;2.57;;;14.30;91.60;;;;;;4196887;28;20195;-75
2022/07/10 00:46:00;;;;;;;3.37;2.37;;;14.30;92.10;;;;;;4201321;28;20171;-76
2022/07/10 00:48:00;;;;;;;2.80;2.50;;;14.20;92.20;;;;;;4200065;28;20248;-76
2022/07/10 00:50:01;;;;;;;3.53;2.93;;;14.20;92.70;;;;;;4200365;28;20195;-76
2022/07/10 00:52:07;;;;;;;3.53;2.73;;;14.20;92.60;;;;;;4199866;28;20191;-76
2022/07/10 00:54:08;;;;;;;3.77;2.90;;;14.20;92.90;;;;;;4200069;28;20249;-76
2022/07/10 00:56:10;;;;;;;3.50;2.50;;;14.10;93.10;;;;;;4199976;28;20172;-76
2022/07/10 00:58:12;;;;;;;3.03;2.73;;;14.10;93.70;;;;;;4200118;28;20658;-76
2022/07/10 01:00:13;;;;;;;5.03;2.93;;;14.10;93.60;;;;;;4200329;28;20171;-76
2022/07/10 01:02:15;;;;;;;3.83;2.87;;;14.00;93.50;;;;;;4198677;28;20202;-76
2022/07/10 01:04:17;;;;;;;4.17;2.80;;;13.90;94.10;;;;;;4200110;28;20695;-76
2022/07/10 01:06:17;;;;;;;3.20;2.80;;;13.90;94.70;;;;;;4200601;28;20172;-76
2022/07/10 01:08:18;;;;;;;3.53;2.73;;;13.90;95.00;;;;;;4199627;28;20229;-76
2022/07/10 01:10:19;;;;;;;3.00;2.70;;;13.90;94.80;;;;;;4199770;28;20176;-77
2022/07/10 01:12:20;;;;;;;3.03;2.60;;;13.80;95.70;;;;;;4199400;28;20176;-76
2022/07/10 01:14:21;;;;;;;4.17;2.50;;;13.80;95.80;;;;;;4199744;28;20796;-78
2022/07/10 01:16:22;;;;;;;2.87;2.50;;;13.80;96.00;;;;;;4200000;28;20259;-77
2022/07/10 01:18:24;;;;;;;2.67;2.43;;;13.80;96.20;;;;;;4198799;28;20178;-77
2022/07/10 01:20:32;;;;;;;3.20;2.90;;;13.90;96.30;;;;;;4195907;28;20176;-77
2022/07/10 01:22:33;;;;;;;3.53;2.60;;;13.80;96.40;;;;;;4196832;28;20324;-77
2022/07/10 01:24:33;;;;;;;3.83;3.23;;;13.90;96.00;;;;;;4197646;28;20195;-77
2022/07/10 01:26:35;;;;;;;3.40;3.10;;;13.80;96.60;;;;;;4197406;28;20172;-77
2022/07/10 01:28:35;;;;;;;4.77;3.27;;;13.80;96.60;;;;;;4197225;28;20558;-77
2022/07/10 01:30:36;;;;;;;3.43;3.13;;;13.80;97.20;;;;;;4197393;28;20172;-77
2022/07/10 01:32:39;;;;;;;2.97;2.77;;;13.80;96.60;;;;;;4196929;28;20164;-77
2022/07/10 01:34:40;;;;;;;3.23;2.93;;;13.70;97.30;;;;;;4197592;28;20199;-78
2022/07/10 01:36:41;;;;;;;4.57;3.17;;;13.70;97.70;;;;;;4198178;28;20218;-77
2022/07/10 01:38:42;;;;;;;3.90;2.80;;;13.60;98.00;;;;;;4198144;28;20666;-77
2022/07/10 01:40:42;;;;;;;3.03;2.73;;;13.60;98.20;;;;;;4198450;28;20655;-76
2022/07/10 01:42:43;;;;;;;4.00;3.13;;;13.50;98.50;;;;;;4198801;28;20178;-78
2022/07/10 01:44:44;;;;;;;2.73;2.53;;;13.40;98.90;;;;;;4199696;28;20252;-77
2022/07/10 01:46:45;;;;;;;3.33;3.03;;;13.30;99.90;;;;;;4198757;28;20187;-78
2022/07/10 01:48:46;;;;;;;3.47;3.17;;;13.20;99.90;;;;;;4201436;28;20207;-78
2022/07/10 01:50:47;;;;;;;3.80;3.20;;;13.20;99.90;;;;;;4200414;28;20252;-77
2022/07/10 01:52:47;;;;;;;4.37;2.90;;;13.20;99.90;;;;;;4204045;28;20491;-77
2022/07/10 01:54:48;;;;;;;3.53;3.20;;;13.10;99.90;;;;;;4215444;28;20200;-77
2022/07/10 01:56:49;;;;;;;3.43;3.13;;;13.20;99.90;;;;;;4209359;28;20255;-78
2022/07/10 01:58:49;;;;;;;3.67;3.30;;;13.10;99.90;;;;;;4207072;28;20179;-78
2022/07/10 02:00:50;;;;;;;4.60;3.33;;;13.00;99.90;;;;;;4210127;28;20182;-78
2022/07/10 02:05:10;;;;;;;4.80;3.20;;;12.90;99.90;;;;;;4223911;28;20190;-79
2022/07/10 02:07:12;;;;;;;4.30;3.30;;;12.90;99.90;;;;;;4222741;28;20191;-77
2022/07/10 02:09:14;;;;;;;3.20;2.90;;;12.90;99.90;;;;;;4224088;28;20218;-78
2022/07/10 02:11:15;;;;;;;3.60;3.13;;;13.00;99.90;;;;;;4222260;28;20179;-79
2022/07/10 02:13:19;;;;;;;3.87;3.33;;;13.10;99.90;;;;;;4223901;28;20228;-79
2022/07/10 02:15:20;;;;;;;4.97;3.90;;;13.00;99.90;;;;;;4223674;28;20171;-78
2022/07/10 02:17:21;;;;;;;3.77;3.37;;;12.90;99.90;;;;;;4224679;28;20205;-79
2022/07/10 02:19:21;;;;;;;4.80;3.40;;;12.90;99.90;;;;;;4224217;28;20239;-79
2022/07/10 02:21:22;;;;;;;5.27;3.77;;;12.80;99.90;;;;;;4223050;28;20229;-79
2022/07/10 02:23:22;;;;;;;4.07;3.73;;;12.80;99.90;;;;;;4224503;28;20195;-79
2022/07/10 02:25:23;;;;;;;7.00;4.37;;;12.80;99.90;;;;;;4224210;28;20634;-79
2022/07/10 02:27:23;;;;;;;4.77;3.97;;;12.70;99.90;;;;;;4213409;28;20201;-79
2022/07/10 02:29:24;;;;;;;4.10;3.57;;;12.70;99.90;;;;;;4222268;28;20221;-79
2022/07/10 02:31:25;;;;;;;3.93;3.27;;;12.60;99.90;;;;;;4223475;28;20171;-79
2022/07/10 02:33:25;;;;;;;5.33;3.93;;;12.60;99.90;;;;;;4224311;28;20712;-79
2022/07/10 02:35:26;;;;;;;5.93;3.73;;;12.60;99.90;;;;;;4224560;28;20196;-80
2022/07/10 02:37:26;;;;;;;5.13;4.20;;;12.60;99.90;;;;;;4224147;28;20201;-80
2022/07/10 02:39:27;;;;;;;6.50;4.03;;;12.60;99.90;;;;;;4224833;28;20233;-79
2022/07/10 02:41:28;;;;;;;4.20;3.80;;;12.60;99.90;;;;;;4223322;28;20214;-80
2022/07/10 02:43:28;;;;;;;4.20;3.80;;;12.70;99.90;;;;;;4221742;28;20207;-80
2022/07/10 02:45:29;;;;;;;4.37;3.70;;;12.70;99.90;;;;;;4213900;28;20337;-79
2022/07/10 02:47:29;;;;;;;4.70;4.00;;;12.80;99.90;;;;;;4205494;28;20477;-80
2022/07/10 02:49:30;;;;;;;4.57;4.17;;;12.80;99.90;;;;;;4206172;28;20216;-80
2022/07/10 02:51:31;;;;;;;4.70;3.80;;;12.80;99.90;;;;;;4206002;28;20186;-79
2022/07/10 02:53:31;;;;;;;4.80;3.83;;;12.80;99.90;;;;;;4205367;28;20195;-79
2022/07/10 02:55:32;;;;;;;5.33;4.53;;;12.70;99.90;;;;;;4204679;28;20175;-81
2022/07/10 02:57:33;;;;;;;5.33;3.70;;;12.60;99.90;;;;;;4205590;28;20179;-80
2022/07/10 02:59:34;;;;;;;6.10;3.80;;;12.60;99.90;;;;;;4206347;28;20188;-80
2022/07/10 03:01:34;;;;;;;5.60;4.00;;;12.50;99.90;;;;;;4205635;28;20179;-80
2022/07/10 03:03:35;;;;;;;4.10;3.70;;;12.50;99.90;;;;;;4205680;28;20303;-80
2022/07/10 03:05:35;;;;;;;6.20;4.30;;;12.50;99.90;;;;;;4204097;28;20191;-80
2022/07/10 03:07:36;;;;;;;3.87;3.50;;;12.50;99.90;;;;;;4203273;28;20192;-80
2022/07/10 03:09:36;;;;;;;3.80;3.40;;;12.60;99.90;;;;;;4201626;28;20269;-79
2022/07/10 03:11:37;;;;;;;3.60;3.30;;;12.50;99.90;;;;;;4200815;28;20247;-81
2022/07/10 03:13:37;;;;;;;4.57;3.90;;;12.40;99.90;;;;;;4202840;28;20200;-80
2022/07/10 03:15:38;;;;;;;3.87;3.20;;;12.30;99.90;;;;;;4200623;28;20191;-80
2022/07/10 03:17:39;;;;;;;4.00;3.57;;;12.30;99.90;;;;;;4202495;28;20179;-80
2022/07/10 03:19:40;;;;;;;4.17;3.77;;;12.30;99.90;;;;;;4200457;28;20182;-80
2022/07/10 03:21:40;;;;;;;5.13;3.53;;;12.30;99.90;;;;;;4199544;28;20286;-80
2022/07/10 03:23:41;;;;;;;5.73;4.20;;;12.30;99.90;;;;;;4196987;28;20206;-81
2022/07/10 03:25:41;;;;;;;4.83;4.23;;;12.30;99.90;;;;;;4196871;28;20237;-80
2022/07/10 03:27:42;;;;;;;6.63;4.43;;;12.30;99.90;;;;;;4197427;28;20175;-80
2022/07/10 03:29:43;;;;;;;5.67;5.07;;;12.30;99.90;;;;;;4197124;28;20203;-80
2022/07/10 03:31:43;;;;;;;6.37;5.17;;;12.30;99.90;;;;;;4196597;28;20172;-81
2022/07/10 03:33:44;;;;;;;6.80;4.70;;;12.30;99.90;;;;;;4196757;28;20192;-82
2022/07/10 03:35:44;;;;;;;6.00;4.83;;;12.30;99.90;;;;;;4195358;28;20171;-80
2022/07/10 03:37:45;;;;;;;5.67;4.80;;;12.30;99.90;;;;;;4197053;28;20183;-80
2022/07/10 03:39:45;;;;;;;5.70;5.10;;;12.20;99.90;;;;;;4197096;28;20207;-80
2022/07/10 03:41:46;;;;;;;5.60;4.63;;;12.20;99.90;;;;;;4194706;28;20211;-81
2022/07/10 03:43:47;;;;;;;6.30;4.67;;;12.20;99.90;;;;;;4196774;28;20253;-81
2022/07/10 03:45:47;;;;;;;5.53;5.03;;;12.20;99.90;;;;;;4196765;28;20183;-81
2022/07/10 03:47:48;;;;;;;6.57;4.70;;;12.10;99.90;;;;;;4196832;28;20184;-81
2022/07/10 03:49:49;;;;;;;5.97;4.77;;;12.10;99.90;;;;;;4196700;28;20673;-81
2022/07/10 03:51:51;;;;;;;6.00;4.60;;;12.00;99.90;;;;;;4198649;28;20176;-80
2022/07/10 03:53:51;;;;;;;6.97;5.20;;;12.00;99.90;;;;;;4229684;28;20221;-80
2022/07/10 03:55:52;;;;;;;5.67;4.70;;;12.00;99.90;;;;;;4220238;28;20209;-81
2022/07/10 03:57:57;;;;;;;5.37;4.37;;;12.00;99.90;;;;;;4214556;28;20190;-80
2022/07/10 03:59:57;;;;;;;6.80;4.80;;;12.00;99.90;;;;;;4214179;28;20167;-80
2022/07/10 04:01:58;;;;;;;5.50;4.30;;;12.10;99.90;;;;;;4213724;28;20178;-80
2022/07/10 04:03:58;;;;;;;5.30;4.37;;;12.00;99.90;;;;;;4214298;28;20289;-80
2022/07/10 04:05:59;;;;;;;4.77;4.23;;;12.00;99.90;;;;;;4213864;28;20167;-80
2022/07/10 04:08:00;;;;;;;4.27;3.87;;;11.90;99.90;;;;;;4213961;28;20175;-80
2022/07/10 04:10:02;;;;;;;5.13;3.90;;;11.90;99.90;;;;;;4213600;28;20242;-79
2022/07/10 04:12:02;;;;;;;5.50;3.97;;;11.80;99.90;;;;;;4212387;28;20571;-82
2022/07/10 04:14:03;;;;;;;4.57;4.07;;;11.80;99.90;;;;;;4214283;28;20191;-82
2022/07/10 04:16:04;;;;;;;4.33;3.93;;;11.80;99.90;;;;;;4214130;28;20182;-81
2022/07/10 04:18:05;;;;;;;4.57;4.10;;;11.80;99.90;;;;;;4214218;28;20179;-82
2022/07/10 04:20:06;;;;;;;6.33;4.83;;;11.80;99.90;;;;;;4213832;28;20175;-80
2022/07/10 04:22:07;;;;;;;6.63;4.50;;;11.90;99.90;;;;;;4216563;28;20265;-82
2022/07/10 04:24:07;;;;;;;6.20;5.23;;;11.80;99.90;;;;;;4217420;28;20288;-81
2022/07/10 04:26:08;;;;;;;8.73;5.23;;;12.00;99.90;;;;;;4216609;28;20192;-80
2022/07/10 04:28:09;;;;;;;6.80;5.87;;;12.00;99.90;;;;;;4216566;28;20175;-80
2022/07/10 04:30:09;;;;;;;7.33;6.40;;;12.00;99.90;;;;;;4216708;28;20601;-80
2022/07/10 04:32:10;;;;;;;5.20;4.73;;;12.00;99.90;;;;;;4215354;28;20257;-81
2022/07/10 04:34:11;;;;;;;6.00;5.00;;;12.00;99.90;;;;;;4214831;28;20202;-80
2022/07/10 04:36:11;;;;;;;5.57;4.93;;;12.00;99.90;;;;;;4216352;28;20196;-81
2022/07/10 04:38:12;;;;;;;6.63;5.67;;;12.00;99.90;;;;;;4216027;28;20175;-81
2022/07/10 04:40:12;;;;;;;5.90;4.90;;;12.00;99.90;;;;;;4207489;28;20541;-80
2022/07/10 04:42:13;;;;;;;5.87;5.27;;;12.00;99.90;;;;;;4203479;28;20192;-80
2022/07/10 04:44:14;;;;;;;5.80;5.00;;;12.00;99.90;;;;;;4215188;28;20203;-80
2022/07/10 04:46:14;;;;;;;5.27;4.77;;;12.00;99.90;;;;;;4216255;28;20190;-80
2022/07/10 04:48:15;;;;;;;5.60;5.00;;;12.00;99.90;;;;;;4216553;28;20205;-80
2022/07/10 04:50:16;;;;;;;5.07;4.57;;;12.00;99.90;;;;;;4215164;28;20287;-80
2022/07/10 04:52:16;;;;;;;6.57;4.93;;;12.10;99.90;;;;;;4214817;28;20193;-78
2022/07/10 04:54:17;;;;;;;5.97;5.20;;;12.10;99.90;;;;;;4217837;28;20202;-79
2022/07/10 04:56:17;;;;;;;5.37;4.87;;;12.20;99.90;;;;;;4217227;28;20183;-80
2022/07/10 04:58:18;;;;;;;5.90;4.90;;;12.20;99.90;;;;;;4218201;28;20175;-80
2022/07/10 05:00:19;;;;;;;5.10;4.60;;;12.20;99.90;;;;;;4217852;28;20179;-80
2022/07/10 05:02:19;;;;;;;7.53;5.30;;;12.30;99.90;;;;;;4216982;28;20197;-80
2022/07/10 05:04:20;;;;;;;5.47;4.93;;;12.30;99.90;;;;;;4218201;28;20259;-79
2022/07/10 05:06:20;;;;;;;7.43;4.73;;;12.30;99.90;;;;;;4218540;28;20942;-79
2022/07/10 05:08:21;;;;;;;4.93;4.43;;;12.30;99.90;;;;;;4219076;28;20183;-79
2022/07/10 05:10:22;;;;;;;5.20;4.70;;;12.40;99.90;;;;;;4219311;28;20282;-80
2022/07/10 05:12:23;;;;;;;6.27;4.70;;;12.50;99.90;;;;;;4218870;28;20167;-80
2022/07/10 05:14:25;;;;;;;6.90;4.77;;;12.50;99.90;;;;;;4219906;28;20228;-80
2022/07/10 05:16:26;;;;;;;6.33;5.30;;;12.60;99.90;;;;;;4219450;28;20181;-79
2022/07/10 05:18:26;;;;;;;7.47;4.40;;;12.60;99.90;;;;;;4218994;28;20260;-78
2022/07/10 05:20:27;;;;;;;5.40;4.70;;;12.70;99.90;;;;;;4218962;28;21228;-78
2022/07/10 05:22:30;;;;;;;5.90;4.63;;;12.80;99.90;;;;;;4219033;28;20248;-79
2022/07/10 05:24:30;;;;;;;5.33;4.73;;;13.00;99.90;;;;;;4220425;28;20282;-78
2022/07/10 05:26:31;;;;;;;6.20;4.80;;;13.20;99.90;;;;;;4219736;28;20236;-77
2022/07/10 05:28:32;;;;;;;8.10;6.90;;;13.40;99.90;;;;;;4220268;28;20236;-78
2022/07/10 05:30:33;;;;;;;7.17;6.47;;;13.60;99.90;;;;;;4219039;28;20245;-77
2022/07/10 05:32:33;;;;;;;8.17;6.17;;;14.00;99.90;;;;;;4218147;28;20372;-77
2022/07/10 05:34:34;;;;;;;7.93;6.67;;;14.30;99.00;;;;;;4219366;28;20212;-78
2022/07/10 05:36:35;;;;;;;6.87;5.73;;;14.50;97.90;;;;;;4220179;28;20164;-78
2022/07/10 05:38:35;;;;;;;7.27;6.40;;;14.80;96.60;;;;;;4220549;28;20172;-79
2022/07/10 05:40:36;;;;;;;7.87;5.10;;;14.90;94.10;;;;;;4219090;28;20179;-78
2022/07/10 05:42:36;;;;;;;6.53;5.93;;;15.00;94.70;;;;;;4218787;28;20189;-77
2022/07/10 05:44:37;;;;;;;6.37;5.60;;;15.30;93.90;;;;;;4219044;28;20660;-77
2022/07/10 05:46:37;;;;;;;6.93;5.93;;;15.50;92.40;;;;;;4219227;28;20266;-78
2022/07/10 05:48:38;;;;;;;6.43;5.53;;;15.60;91.20;;;;;;4218316;28;20191;-78
2022/07/10 05:50:39;;;;;;;6.97;6.23;;;15.40;92.70;;;;;;4218867;28;20178;-78
2022/07/10 05:52:39;;;;;;;7.07;5.60;;;15.60;91.60;;;;;;4228723;28;20194;-78
2022/07/10 05:54:40;;;;;;;6.47;5.83;;;15.70;91.40;;;;;;4225333;28;20210;-79
2022/07/10 05:56:41;;;;;;;6.70;5.50;;;15.80;90.10;;;;;;4221639;28;20205;-78
2022/07/10 05:58:41;;;;;;;6.67;6.00;;;15.80;90.40;;;;;;4221249;28;20181;-78
2022/07/10 06:00:43;;;;;;;6.77;6.10;;;15.90;89.80;;;;;;4220957;28;20190;-79
2022/07/10 06:02:44;;;;;;;5.83;5.20;;;16.20;88.20;;;;;;4220446;28;20168;-79
2022/07/10 06:04:44;;;;;;;5.97;5.37;;;16.10;87.50;;;;;;4221036;28;20252;-79
2022/07/10 06:06:46;;;;;;;7.67;6.00;;;15.90;90.10;;;;;;4220261;28;20183;-78
2022/07/10 06:08:47;;;;;;;9.73;6.73;;;16.00;88.20;;;;;;4218992;28;20187;-79
2022/07/10 06:10:47;;;;;;;10.33;7.57;;;15.60;89.20;;;;;;4219552;28;20178;-78
2022/07/10 06:12:48;;;;;;;9.77;7.70;;;15.60;90.80;;;;;;4220548;28;20645;-79
2022/07/10 06:14:49;;;;;;;8.57;6.87;;;15.90;89.60;;;;;;4220639;28;20199;-79
2022/07/10 06:16:49;;;;;;;8.00;7.20;;;16.00;89.40;;;;;;4220827;28;20171;-78
2022/07/10 06:18:50;;;;;;;9.07;7.13;;;16.20;87.40;;;;;;4220033;28;20189;-79
2022/07/10 06:20:51;;;;;;;15.47;14.20;;;16.00;87.80;;;;;;4218425;28;20195;-78
2022/07/10 06:22:51;;;;;;;8.27;7.47;;;16.10;87.90;;;;;;4219918;28;20197;-78
2022/07/10 06:24:52;;;;;;;8.57;7.60;;;16.20;87.20;;;;;;4219837;28;20727;-78
2022/07/10 06:26:52;;;;;;;8.07;6.87;;;16.00;87.90;;;;;;4219468;28;20195;-78
2022/07/10 06:28:53;;;;;;;8.53;7.53;;;16.00;89.50;;;;;;4219326;28;20244;-78
2022/07/10 06:30:53;;;;;;;8.13;7.17;;;15.70;90.00;;;;;;4219157;28;20182;-77
2022/07/10 06:32:54;;;;;;;10.87;7.47;;;15.70;90.60;;;;;;4219290;28;20181;-78
2022/07/10 06:34:55;;;;;;;9.60;7.67;;;16.00;89.10;;;;;;4218657;28;20238;-78
2022/07/10 06:36:56;;;;;;;8.47;7.57;;;16.10;87.10;;;;;;4218115;28;20550;-78
2022/07/10 06:38:56;;;;;;;8.90;8.00;;;16.10;87.10;;;;;;4218995;28;20191;-78
2022/07/10 06:40:57;;;;;;;8.63;7.50;;;16.20;86.60;;;;;;4216759;28;20698;-77
2022/07/10 06:42:57;;;;;;;8.13;6.90;;;16.30;85.10;;;;;;4202956;28;20183;-78
2022/07/10 06:44:58;;;;;;;9.17;7.33;;;16.10;87.10;;;;;;4204178;28;20172;-78
2022/07/10 06:49:19;;;;;;;9.57;8.43;;;16.10;87.50;;;;;;4203887;28;20339;-79
2022/07/10 06:51:19;;;;;;;8.90;7.57;;;16.40;85.80;;;;;;4201206;28;20184;-78
2022/07/10 06:53:24;;;;;;;8.53;7.33;;;16.40;85.50;;;;;;4202182;28;20204;-78
2022/07/10 06:55:26;;;;;;;10.83;9.37;;;16.20;87.10;;;;;;4202646;28;20180;-76
2022/07/10 06:57:27;;;;;;;10.23;8.23;;;16.20;88.40;;;;;;4201611;28;20175;-77
2022/07/10 06:59:28;;;;;;;8.23;7.43;;;16.00;88.60;;;;;;4199903;28;20626;-77
2022/07/10 07:01:28;;;;;;;8.27;7.07;;;16.30;87.30;;;;;;4201261;28;20201;-77
2022/07/10 07:03:29;;;;;;;9.27;6.80;;;16.60;85.20;;;;;;4200927;28;20348;-78
2022/07/10 07:05:29;;;;;;;9.33;7.23;;;16.90;82.80;;;;;;4202507;28;20190;-78
2022/07/10 07:07:30;;;;;;;12.67;11.53;;;16.80;83.40;;;;;;4201302;28;20171;-76
2022/07/10 07:09:31;;;;;;;8.93;7.40;;;16.40;84.30;;;;;;4202764;28;20207;-77
2022/07/10 07:11:31;;;;;;;9.43;8.33;;;16.50;84.90;;;;;;4200938;28;20661;-78
2022/07/10 07:13:32;;;;;;;7.77;6.97;;;16.60;83.80;;;;;;4202345;28;20214;-77
2022/07/10 07:15:36;;;;;;;7.47;6.77;;;16.30;84.80;;;;;;4201820;28;20184;-77
2022/07/10 07:24:43;;;;;;;7.57;6.87;;;16.70;82.20;;;;;;4202866;28;20202;-76
2022/07/10 07:26:47;;;;;;;8.17;7.07;;;16.60;82.40;;;;;;4200484;28;20183;-77
2022/07/10 07:28:47;;;;;;;6.83;6.17;;;16.80;78.80;;;;;;4202139;28;20242;-77
2022/07/10 07:30:50;;;;;;;7.17;6.43;;;16.70;78.80;;;;;;4201377;28;20531;-77
2022/07/10 07:32:50;;;;;;;7.13;6.33;;;16.70;79.50;;;;;;4202325;28;20175;-77
2022/07/10 07:34:51;;;;;;;8.57;7.03;;;17.00;76.90;;;;;;4199747;28;20205;-77
2022/07/10 07:36:51;;;;;;;8.73;6.30;;;16.70;78.10;;;;;;4202333;28;20559;-76
2022/07/10 07:38:52;;;;;;;6.87;6.03;;;17.20;76.30;;;;;;4199009;28;20176;-76
2022/07/10 07:40:52;;;;;;;10.50;8.43;;;17.30;74.30;;;;;;4196577;28;20280;-78
2022/07/10 07:42:54;;;;;;;6.03;5.47;;;17.50;71.80;;;;;;4199444;28;20266;-77
2022/07/10 07:44:55;;;;;;;5.77;5.23;;;17.60;71.70;;;;;;4202528;28;20184;-76
2022/07/10 07:46:56;;;;;;;6.50;5.57;;;17.50;71.40;;;;;;4202139;28;20179;-78
2022/07/10 07:48:57;;;;;;;5.80;5.20;;;17.50;71.60;;;;;;4203203;28;20226;-78
2022/07/10 07:50:58;;;;;;;6.20;4.73;;;17.30;72.90;;;;;;4210415;28;20187;-77
2022/07/10 07:53:00;;;;;;;6.33;5.10;;;17.40;73.80;;;;;;4209693;28;20183;-77
2022/07/10 07:55:01;;;;;;;6.17;5.50;;;17.60;73.10;;;;;;4214769;28;20220;-78
2022/07/10 07:57:02;;;;;;;7.30;5.70;;;17.60;72.30;;;;;;4218191;28;20186;-77
2022/07/10 07:59:03;;;;;;;7.00;6.30;;;17.90;69.30;;;;;;4219570;28;20289;-77
2022/07/10 08:01:03;;;;;;;6.07;5.47;;;17.90;70.60;;;;;;4219276;28;20189;-77
2022/07/10 08:03:04;;;;;;;5.13;4.67;;;17.60;72.10;;;;;;4217940;28;20178;-77
2022/07/10 08:05:06;;;;;;;14.50;13.53;;;17.90;70.60;;;;;;4217905;28;20163;-77
2022/07/10 08:07:06;;;;;;;14.77;13.77;;;18.20;68.00;;;;;;4217086;28;20186;-78
2022/07/10 08:09:07;;;;;;;5.70;5.20;;;17.90;67.20;;;;;;4216491;28;20236;-77
2022/07/10 08:11:07;;;;;;;6.97;6.40;;;18.10;68.00;;;;;;4215834;28;20646;-77
2022/07/10 08:13:08;;;;;;;5.90;5.30;;;18.40;65.40;;;;;;4216124;28;20815;-78
2022/07/10 08:15:13;;;;;;;5.30;4.80;;;18.20;64.40;;;;;;4216992;28;20163;-78
2022/07/10 08:17:13;;;;;;;6.93;6.13;;;18.00;68.10;;;;;;4216181;28;20182;-77
2022/07/10 08:19:14;;;;;;;4.97;4.53;;;18.20;67.60;;;;;;4214938;28;20175;-78
2022/07/10 08:21:14;;;;;;;5.13;4.63;;;18.40;67.30;;;;;;4214161;28;20202;-78
2022/07/10 08:23:15;;;;;;;5.60;5.10;;;18.70;64.30;;;;;;4214052;28;20195;-78
2022/07/10 08:25:16;;;;;;;5.43;3.77;;;18.90;62.20;;;;;;4213888;28;20186;-78
2022/07/10 08:27:16;;;;;;;9.63;8.93;;;18.70;64.70;;;;;;4214158;28;20262;-78
2022/07/10 08:29:17;;;;;;;4.73;3.93;;;18.60;64.70;;;;;;4216678;28;20211;-78
2022/07/10 08:31:17;;;;;;;8.27;7.63;;;18.60;62.70;;;;;;4215879;28;20207;-78
2022/07/10 08:33:18;;;;;;;5.47;3.90;;;18.50;62.10;;;;;;4214782;28;20205;-77
2022/07/10 08:35:18;;;;;;;4.63;4.20;;;18.20;64.00;;;;;;4216311;28;20179;-77
2022/07/10 08:37:19;;;;;;;4.10;3.80;;;18.10;62.60;;;;;;4216479;28;20536;-79
2022/07/10 08:39:21;;;;;;;3.83;3.53;;;18.10;63.40;;;;;;4216739;28;20168;-79
2022/07/10 08:41:26;;;;;;;4.20;3.73;;;18.20;61.70;;;;;;4216780;28;20179;-77
2022/07/10 08:43:26;;;;;;;4.20;3.80;;;18.40;61.70;;;;;;4215355;28;20207;-78
2022/07/10 08:45:30;;;;;;;3.60;3.30;;;18.40;63.30;;;;;;4217015;28;20179;-79
2022/07/10 08:47:34;;;;;;;4.20;3.80;;;18.70;61.90;;;;;;4216128;28;20167;-79
2022/07/10 08:49:35;;;;;;;4.87;3.90;;;18.70;58.30;;;;;;4212065;28;20203;-78
2022/07/10 08:51:41;;;;;;;4.13;3.33;;;18.50;58.90;;;;;;4199391;28;20192;-79
2022/07/10 08:53:41;;;;;;;3.23;3.00;;;18.20;60.00;;;;;;4199834;28;20228;-77
2022/07/10 08:55:42;;;;;;;4.10;3.30;;;18.40;59.40;;;;;;4200634;28;20182;-77
2022/07/10 08:57:43;;;;;;;3.10;2.80;;;18.40;57.00;;;;;;4200206;28;20182;-79
2022/07/10 08:59:44;;;;;;;2.73;2.53;;;18.60;56.70;;;;;;4201183;28;20176;-75
2022/07/10 09:01:44;;;;;;;2.90;2.60;;;18.80;51.40;;;;;;4199554;28;21381;-77
2022/07/10 09:03:45;;;;;;;3.33;2.40;;;18.50;53.50;;;;;;4199316;28;20202;-77
2022/07/10 09:05:46;;;;;;;5.20;4.70;;;18.80;55.40;;;;;;4200136;28;20180;-74
2022/07/10 09:07:47;;;;;;;4.37;3.07;;;19.20;53.70;;;;;;4205833;28;20610;-74
2022/07/10 09:09:56;;;;;;;5.37;3.00;;;19.60;52.30;;;;;;4229990;28;20202;-74
2022/07/10 09:11:57;;;;;;;3.93;2.80;;;19.50;51.30;;;;;;4215960;28;20660;-79
2022/07/10 09:14:00;;;;;;;3.03;2.80;;;19.40;50.90;;;;;;4217412;28;20234;-76
2022/07/10 09:16:00;;;;;;;2.80;2.50;;;19.20;52.00;;;;;;4218547;28;20167;-75
2022/07/10 09:18:05;;;;;;;8.17;7.53;;;18.60;52.50;;;;;;4217755;28;20186;-78
2022/07/10 09:20:07;;;;;;;10.63;10.03;;;18.50;52.60;;;;;;4216424;28;20187;-75
2022/07/10 09:22:09;;;;;;;3.13;2.27;;;18.50;50.50;;;;;;4216548;28;20179;-75
2022/07/10 09:24:10;;;;;;;2.53;2.33;;;18.60;50.30;;;;;;4216900;28;20258;-74
2022/07/10 09:26:10;;;;;;;4.53;4.13;;;19.00;51.40;;;;;;4216719;28;20183;-76
2022/07/10 09:28:12;;;;;;;4.07;2.37;;;19.10;49.50;;;;;;4216799;28;20194;-76
2022/07/10 09:30:13;;;;;;;2.30;2.10;;;19.40;49.70;;;;;;4216629;28;20210;-75
2022/07/10 09:32:14;;;;;;;2.47;2.27;;;19.70;50.70;;;;;;4216890;28;20177;-76
2022/07/10 09:34:15;;;;;;;15.47;14.70;;;20.10;48.30;;;;;;4217435;28;20254;-75
2022/07/10 09:36:16;;;;;;;2.20;2.00;;;19.60;45.30;;;;;;4218027;28;20245;-75
2022/07/10 09:38:16;;;;;;;4.40;4.20;;;19.70;47.50;;;;;;4216832;28;20186;-78
2022/07/10 09:40:18;;;;;;;14.10;13.33;;;19.60;44.50;;;;;;4218254;28;20275;-76
2022/07/10 09:42:28;;;;;;;3.67;3.47;;;19.70;43.30;;;;;;4217398;28;20179;-76
2022/07/10 09:44:28;;;;;;;2.00;1.80;;;19.60;41.20;;;;;;4214321;28;20206;-76
2022/07/10 09:46:40;;;;;;;3.40;3.20;;;19.50;42.00;;;;;;4217568;28;20558;-74
2022/07/10 09:48:41;;;;;;;2.13;1.93;;;19.70;44.00;;;;;;4223369;28;20233;-75
2022/07/10 09:50:41;;;;;;;1.80;1.70;;;20.00;42.20;;;;;;4234809;28;20217;-74
2022/07/10 09:52:42;;;;;;;2.03;1.83;;;20.30;43.10;;;;;;4234837;28;20654;-73
2022/07/10 09:54:44;;;;;;;3.43;1.70;;;20.70;42.40;;;;;;4217706;28;20195;-72
2022/07/10 09:56:47;;;;;;;2.53;2.33;;;20.90;40.70;;;;;;4216244;28;20327;-75
2022/07/10 09:58:55;;;;;;;2.23;2.03;;;20.80;41.00;;;;;;4210461;28;20258;-77
2022/07/10 10:00:58;;;;;;;27.50;26.07;;;21.20;41.00;;;;;;4213879;28;20196;-77
2022/07/10 10:03:03;;;;;;;2.13;2.03;;;21.20;39.80;;;;;;4214306;28;20167;-78
2022/07/10 10:05:05;;;;;;;4.17;3.97;;;20.80;40.30;;;;;;4217829;28;20174;-73
2022/07/10 10:07:12;;;;;;;25.37;24.10;;;20.60;41.20;;;;;;4225942;28;20553;-74
2022/07/10 10:09:38;;;;;;;2.33;2.10;;;20.60;39.50;;;;;;4216995;28;20225;-74
2022/07/10 10:11:40;;;;;;;2.33;1.83;;;20.60;35.60;;;;;;4221725;28;20727;-76
2022/07/10 10:13:42;;;;;;;3.27;3.00;;;20.30;37.60;;;;;;4220449;28;20194;-75
2022/07/10 10:15:45;;;;;;;26.70;25.33;;;20.60;36.80;;;;;;4220291;28;20203;-73
2022/07/10 10:17:50;;;;;;;2.77;2.53;;;20.80;34.00;;;;;;4220612;28;20217;-74
2022/07/10 10:22:13;;;;;;;2.70;2.50;;;20.90;38.20;;;;;;4223988;28;20246;-71
2022/07/10 10:24:14;;;;;;;2.47;2.27;;;21.10;38.70;;;;;;4217078;28;20199;-73
2022/07/10 10:26:15;;;;;;;1.97;1.87;;;21.50;39.90;;;;;;4224677;28;20192;-76
2022/07/10 10:28:20;;;;;;;4.90;4.63;;;21.60;40.90;;;;;;4216812;28;20210;-74
2022/07/10 10:30:21;;;;;;;7.00;6.60;;;21.40;37.70;;;;;;4224289;28;20295;-73
2022/07/10 10:32:23;;;;;;;6.80;6.40;;;21.70;39.80;;;;;;4215289;28;20203;-75
2022/07/10 10:34:44;;;;;;;1.80;1.70;;;21.60;38.20;;;;;;4224678;28;20226;-77
2022/07/10 10:36:46;;;;;;;2.57;2.10;;;21.60;37.50;;;;;;4212527;28;20181;-75
2022/07/10 10:38:55;;;;;;;7.03;6.67;;;21.40;35.50;;;;;;4231252;28;20182;-74
2022/07/10 10:41:22;;;;;;;1.67;1.47;;;21.60;34.50;;;;;;4197761;28;20207;-75
2022/07/10 10:43:23;;;;;;;4.20;4.00;;;21.60;35.60;;;;;;4223981;28;20238;-75
2022/07/10 10:45:31;;;;;;;11.30;10.57;;;22.30;36.20;;;;;;4217801;28;20182;-74